sensor_id;sensor_type;location;lat;lon;timestamp;P1;durP1;ratioP1;P2;durP2;ratioP2
20251;SDS011;10284;58.364;15.550;2023-04-15T00:02:00;16.45;;;5.82;;
20251;SDS011;10284;58.364;15.550;2023-04-15T00:04:26;12.35;;;5.68;;
20251;SDS011;10284;58.364;15.550;2023-04-15T00:06:52;18.95;;;6.35;;
20251;SDS011;10284;58.364;15.550;2023-04-15T00:09:18;15.27;;;6.10;;
20251;SDS011;10284;58.364;15.550;2023-04-15T00:11:45;14.38;;;6.00;;
20251;SDS011;10284;58.364;15.550;2023-04-15T00:14:11;15.63;;;6.00;;
20251;SDS011;10284;58.364;15.550;2023-04-15T00:16:37;17.40;;;5.90;;
20251;SDS011;10284;58.364;15.550;2023-04-15T00:19:02;10.65;;;5.85;;
20251;SDS011;10284;58.364;15.550;2023-04-15T00:21:29;12.77;;;5.55;;
20251;SDS011;10284;58.364;15.550;2023-04-15T00:23:54;17.80;;;6.30;;
20251;SDS011;10284;58.364;15.550;2023-04-15T00:26:20;15.93;;;6.15;;
20251;SDS011;10284;58.364;15.550;2023-04-15T00:28:46;15.25;;;6.05;;
20251;SDS011;10284;58.364;15.550;2023-04-15T00:31:11;19.40;;;6.10;;
20251;SDS011;10284;58.364;15.550;2023-04-15T00:33:37;19.35;;;6.50;;
20251;SDS011;10284;58.364;15.550;2023-04-15T00:36:02;16.02;;;6.13;;
20251;SDS011;10284;58.364;15.550;2023-04-15T00:38:29;14.82;;;5.88;;
20251;SDS011;10284;58.364;15.550;2023-04-15T00:40:55;19.20;;;7.75;;
20251;SDS011;10284;58.364;15.550;2023-04-15T00:43:21;13.05;;;6.22;;
20251;SDS011;10284;58.364;15.550;2023-04-15T00:45:46;11.27;;;5.53;;
20251;SDS011;10284;58.364;15.550;2023-04-15T00:48:12;16.52;;;6.32;;
20251;SDS011;10284;58.364;15.550;2023-04-15T00:50:37;16.48;;;6.30;;
20251;SDS011;10284;58.364;15.550;2023-04-15T00:53:03;13.55;;;5.93;;
20251;SDS011;10284;58.364;15.550;2023-04-15T00:55:28;16.40;;;6.32;;
20251;SDS011;10284;58.364;15.550;2023-04-15T00:57:54;13.80;;;5.90;;
20251;SDS011;10284;58.364;15.550;2023-04-15T01:00:21;9.80;;;5.97;;
20251;SDS011;10284;58.364;15.550;2023-04-15T01:02:46;12.50;;;5.93;;
20251;SDS011;10284;58.364;15.550;2023-04-15T01:05:12;16.17;;;6.47;;
20251;SDS011;10284;58.364;15.550;2023-04-15T01:07:37;11.60;;;5.88;;
20251;SDS011;10284;58.364;15.550;2023-04-15T01:10:03;19.30;;;6.32;;
20251;SDS011;10284;58.364;15.550;2023-04-15T01:12:29;18.83;;;6.00;;
20251;SDS011;10284;58.364;15.550;2023-04-15T01:14:57;17.23;;;5.90;;
20251;SDS011;10284;58.364;15.550;2023-04-15T01:17:23;16.15;;;6.80;;
20251;SDS011;10284;58.364;15.550;2023-04-15T01:19:50;17.73;;;6.40;;
20251;SDS011;10284;58.364;15.550;2023-04-15T01:22:16;14.70;;;6.28;;
20251;SDS011;10284;58.364;15.550;2023-04-15T01:24:43;15.50;;;5.57;;
20251;SDS011;10284;58.364;15.550;2023-04-15T01:27:16;14.65;;;5.90;;
20251;SDS011;10284;58.364;15.550;2023-04-15T01:29:41;14.50;;;5.80;;
20251;SDS011;10284;58.364;15.550;2023-04-15T01:32:07;15.95;;;6.30;;
20251;SDS011;10284;58.364;15.550;2023-04-15T01:34:32;14.07;;;6.05;;
20251;SDS011;10284;58.364;15.550;2023-04-15T01:36:58;15.40;;;5.68;;
20251;SDS011;10284;58.364;15.550;2023-04-15T01:39:23;13.02;;;5.85;;
20251;SDS011;10284;58.364;15.550;2023-04-15T01:41:49;13.05;;;5.55;;
20251;SDS011;10284;58.364;15.550;2023-04-15T01:44:14;17.15;;;6.07;;
20251;SDS011;10284;58.364;15.550;2023-04-15T01:46:40;14.20;;;5.68;;
20251;SDS011;10284;58.364;15.550;2023-04-15T01:49:05;15.50;;;5.95;;
20251;SDS011;10284;58.364;15.550;2023-04-15T01:51:31;16.88;;;6.13;;
20251;SDS011;10284;58.364;15.550;2023-04-15T01:53:57;14.18;;;6.30;;
20251;SDS011;10284;58.364;15.550;2023-04-15T01:56:22;13.13;;;5.30;;
20251;SDS011;10284;58.364;15.550;2023-04-15T01:58:51;12.20;;;6.20;;
20251;SDS011;10284;58.364;15.550;2023-04-15T02:01:17;11.40;;;5.97;;
20251;SDS011;10284;58.364;15.550;2023-04-15T02:03:43;11.52;;;5.93;;
20251;SDS011;10284;58.364;15.550;2023-04-15T02:06:09;15.30;;;5.65;;
20251;SDS011;10284;58.364;15.550;2023-04-15T02:08:35;16.55;;;5.70;;
20251;SDS011;10284;58.364;15.550;2023-04-15T02:11:00;17.27;;;5.75;;
20251;SDS011;10284;58.364;15.550;2023-04-15T02:13:26;15.38;;;5.70;;
20251;SDS011;10284;58.364;15.550;2023-04-15T02:15:53;15.38;;;5.40;;
20251;SDS011;10284;58.364;15.550;2023-04-15T02:18:19;15.55;;;5.85;;
20251;SDS011;10284;58.364;15.550;2023-04-15T02:20:44;11.48;;;5.90;;
20251;SDS011;10284;58.364;15.550;2023-04-15T02:23:11;17.50;;;6.65;;
20251;SDS011;10284;58.364;15.550;2023-04-15T02:25:37;13.63;;;5.65;;
20251;SDS011;10284;58.364;15.550;2023-04-15T02:28:03;10.20;;;5.47;;
20251;SDS011;10284;58.364;15.550;2023-04-15T02:30:30;13.68;;;5.22;;
20251;SDS011;10284;58.364;15.550;2023-04-15T02:32:56;15.43;;;5.68;;
20251;SDS011;10284;58.364;15.550;2023-04-15T02:35:21;12.40;;;5.53;;
20251;SDS011;10284;58.364;15.550;2023-04-15T02:37:49;16.67;;;5.38;;
20251;SDS011;10284;58.364;15.550;2023-04-15T02:40:15;13.82;;;5.78;;
20251;SDS011;10284;58.364;15.550;2023-04-15T02:42:41;16.05;;;5.80;;
20251;SDS011;10284;58.364;15.550;2023-04-15T02:45:08;11.93;;;5.13;;
20251;SDS011;10284;58.364;15.550;2023-04-15T02:47:34;13.25;;;5.45;;
20251;SDS011;10284;58.364;15.550;2023-04-15T02:50:03;11.02;;;5.32;;
20251;SDS011;10284;58.364;15.550;2023-04-15T02:52:29;10.48;;;4.97;;
20251;SDS011;10284;58.364;15.550;2023-04-15T02:54:54;12.73;;;5.57;;
20251;SDS011;10284;58.364;15.550;2023-04-15T02:57:24;14.95;;;5.13;;
20251;SDS011;10284;58.364;15.550;2023-04-15T02:59:53;14.77;;;5.00;;
20251;SDS011;10284;58.364;15.550;2023-04-15T03:02:19;16.73;;;4.97;;
20251;SDS011;10284;58.364;15.550;2023-04-15T03:04:44;16.70;;;5.80;;
20251;SDS011;10284;58.364;15.550;2023-04-15T03:07:12;17.33;;;5.05;;
20251;SDS011;10284;58.364;15.550;2023-04-15T03:09:38;10.38;;;5.00;;
20251;SDS011;10284;58.364;15.550;2023-04-15T03:12:05;11.55;;;5.07;;
20251;SDS011;10284;58.364;15.550;2023-04-15T03:14:30;11.63;;;4.97;;
20251;SDS011;10284;58.364;15.550;2023-04-15T03:16:56;13.32;;;6.32;;
20251;SDS011;10284;58.364;15.550;2023-04-15T03:19:23;11.68;;;5.35;;
20251;SDS011;10284;58.364;15.550;2023-04-15T03:21:48;10.02;;;5.28;;
20251;SDS011;10284;58.364;15.550;2023-04-15T03:24:14;12.05;;;4.80;;
20251;SDS011;10284;58.364;15.550;2023-04-15T03:26:39;15.23;;;5.13;;
20251;SDS011;10284;58.364;15.550;2023-04-15T03:29:05;11.75;;;4.85;;
20251;SDS011;10284;58.364;15.550;2023-04-15T03:31:31;12.50;;;5.07;;
20251;SDS011;10284;58.364;15.550;2023-04-15T03:33:56;11.43;;;4.82;;
20251;SDS011;10284;58.364;15.550;2023-04-15T03:36:23;13.98;;;4.70;;
20251;SDS011;10284;58.364;15.550;2023-04-15T03:38:49;14.80;;;4.88;;
20251;SDS011;10284;58.364;15.550;2023-04-15T03:41:15;22.67;;;5.10;;
20251;SDS011;10284;58.364;15.550;2023-04-15T03:43:40;10.30;;;4.55;;
20251;SDS011;10284;58.364;15.550;2023-04-15T03:46:06;11.57;;;4.93;;
20251;SDS011;10284;58.364;15.550;2023-04-15T03:48:31;9.02;;;4.95;;
20251;SDS011;10284;58.364;15.550;2023-04-15T03:50:56;10.05;;;4.65;;
20251;SDS011;10284;58.364;15.550;2023-04-15T03:53:22;10.82;;;4.53;;
20251;SDS011;10284;58.364;15.550;2023-04-15T03:55:47;10.48;;;4.43;;
20251;SDS011;10284;58.364;15.550;2023-04-15T03:58:13;11.88;;;4.90;;
20251;SDS011;10284;58.364;15.550;2023-04-15T04:00:39;17.00;;;4.57;;
20251;SDS011;10284;58.364;15.550;2023-04-15T04:03:05;10.75;;;4.45;;
20251;SDS011;10284;58.364;15.550;2023-04-15T04:05:31;13.90;;;4.50;;
20251;SDS011;10284;58.364;15.550;2023-04-15T04:07:56;10.27;;;4.53;;
20251;SDS011;10284;58.364;15.550;2023-04-15T04:10:21;15.60;;;4.93;;
20251;SDS011;10284;58.364;15.550;2023-04-15T04:12:47;11.25;;;4.65;;
20251;SDS011;10284;58.364;15.550;2023-04-15T04:15:12;10.18;;;4.68;;
20251;SDS011;10284;58.364;15.550;2023-04-15T04:17:38;9.07;;;4.63;;
20251;SDS011;10284;58.364;15.550;2023-04-15T04:20:03;10.65;;;4.30;;
20251;SDS011;10284;58.364;15.550;2023-04-15T04:22:29;15.13;;;4.90;;
20251;SDS011;10284;58.364;15.550;2023-04-15T04:24:55;11.32;;;4.45;;
20251;SDS011;10284;58.364;15.550;2023-04-15T04:27:21;14.68;;;4.97;;
20251;SDS011;10284;58.364;15.550;2023-04-15T04:29:46;8.23;;;4.00;;
20251;SDS011;10284;58.364;15.550;2023-04-15T04:32:13;10.70;;;4.50;;
20251;SDS011;10284;58.364;15.550;2023-04-15T04:34:39;18.40;;;4.90;;
20251;SDS011;10284;58.364;15.550;2023-04-15T04:37:05;11.98;;;4.78;;
20251;SDS011;10284;58.364;15.550;2023-04-15T04:39:31;12.30;;;4.70;;
20251;SDS011;10284;58.364;15.550;2023-04-15T04:41:56;12.02;;;4.50;;
20251;SDS011;10284;58.364;15.550;2023-04-15T04:44:22;10.40;;;4.40;;
20251;SDS011;10284;58.364;15.550;2023-04-15T04:46:47;11.10;;;4.78;;
20251;SDS011;10284;58.364;15.550;2023-04-15T04:49:13;7.20;;;3.90;;
20251;SDS011;10284;58.364;15.550;2023-04-15T04:51:38;9.57;;;4.10;;
20251;SDS011;10284;58.364;15.550;2023-04-15T04:54:03;9.43;;;4.35;;
20251;SDS011;10284;58.364;15.550;2023-04-15T04:56:29;9.32;;;4.47;;
20251;SDS011;10284;58.364;15.550;2023-04-15T04:58:54;11.15;;;4.68;;
20251;SDS011;10284;58.364;15.550;2023-04-15T05:01:20;10.00;;;4.75;;
20251;SDS011;10284;58.364;15.550;2023-04-15T05:03:45;8.73;;;4.43;;
20251;SDS011;10284;58.364;15.550;2023-04-15T05:06:11;11.05;;;5.00;;
20251;SDS011;10284;58.364;15.550;2023-04-15T05:08:36;12.93;;;4.40;;
20251;SDS011;10284;58.364;15.550;2023-04-15T05:11:02;10.13;;;4.45;;
20251;SDS011;10284;58.364;15.550;2023-04-15T05:13:27;11.23;;;4.45;;
20251;SDS011;10284;58.364;15.550;2023-04-15T05:15:54;14.57;;;4.25;;
20251;SDS011;10284;58.364;15.550;2023-04-15T05:18:19;9.15;;;4.00;;
20251;SDS011;10284;58.364;15.550;2023-04-15T05:20:45;8.90;;;4.40;;
20251;SDS011;10284;58.364;15.550;2023-04-15T05:23:10;11.88;;;4.97;;
20251;SDS011;10284;58.364;15.550;2023-04-15T05:25:36;12.70;;;4.75;;
20251;SDS011;10284;58.364;15.550;2023-04-15T05:28:01;8.40;;;4.03;;
20251;SDS011;10284;58.364;15.550;2023-04-15T05:30:26;8.25;;;4.10;;
20251;SDS011;10284;58.364;15.550;2023-04-15T05:32:52;9.85;;;4.07;;
20251;SDS011;10284;58.364;15.550;2023-04-15T05:35:17;13.02;;;4.50;;
20251;SDS011;10284;58.364;15.550;2023-04-15T05:37:43;9.45;;;4.25;;
20251;SDS011;10284;58.364;15.550;2023-04-15T05:40:09;8.27;;;3.85;;
20251;SDS011;10284;58.364;15.550;2023-04-15T05:42:35;11.57;;;4.65;;
20251;SDS011;10284;58.364;15.550;2023-04-15T05:45:01;8.05;;;4.53;;
20251;SDS011;10284;58.364;15.550;2023-04-15T05:47:29;9.35;;;4.53;;
20251;SDS011;10284;58.364;15.550;2023-04-15T05:49:54;6.40;;;4.10;;
20251;SDS011;10284;58.364;15.550;2023-04-15T05:52:20;11.57;;;4.35;;
20251;SDS011;10284;58.364;15.550;2023-04-15T05:54:46;9.95;;;3.92;;
20251;SDS011;10284;58.364;15.550;2023-04-15T05:57:11;8.15;;;4.90;;
20251;SDS011;10284;58.364;15.550;2023-04-15T05:59:37;8.98;;;3.88;;
20251;SDS011;10284;58.364;15.550;2023-04-15T06:02:03;9.38;;;4.30;;
20251;SDS011;10284;58.364;15.550;2023-04-15T06:04:28;13.68;;;4.68;;
20251;SDS011;10284;58.364;15.550;2023-04-15T06:06:54;11.50;;;4.25;;
20251;SDS011;10284;58.364;15.550;2023-04-15T06:09:20;13.82;;;4.65;;
20251;SDS011;10284;58.364;15.550;2023-04-15T06:11:45;10.23;;;4.18;;
20251;SDS011;10284;58.364;15.550;2023-04-15T06:14:10;12.05;;;3.97;;
20251;SDS011;10284;58.364;15.550;2023-04-15T06:16:36;6.50;;;4.15;;
20251;SDS011;10284;58.364;15.550;2023-04-15T06:19:02;12.35;;;4.60;;
20251;SDS011;10284;58.364;15.550;2023-04-15T06:21:27;10.55;;;4.05;;
20251;SDS011;10284;58.364;15.550;2023-04-15T06:23:53;8.85;;;3.92;;
20251;SDS011;10284;58.364;15.550;2023-04-15T06:26:20;13.52;;;4.63;;
20251;SDS011;10284;58.364;15.550;2023-04-15T06:28:46;9.23;;;4.25;;
20251;SDS011;10284;58.364;15.550;2023-04-15T06:31:11;10.55;;;3.88;;
20251;SDS011;10284;58.364;15.550;2023-04-15T06:33:37;8.98;;;4.22;;
20251;SDS011;10284;58.364;15.550;2023-04-15T06:36:03;9.43;;;4.30;;
20251;SDS011;10284;58.364;15.550;2023-04-15T06:38:29;9.73;;;4.90;;
20251;SDS011;10284;58.364;15.550;2023-04-15T06:40:54;9.20;;;4.38;;
20251;SDS011;10284;58.364;15.550;2023-04-15T06:43:20;8.85;;;3.85;;
20251;SDS011;10284;58.364;15.550;2023-04-15T06:45:45;9.48;;;4.15;;
20251;SDS011;10284;58.364;15.550;2023-04-15T06:48:11;9.05;;;3.97;;
20251;SDS011;10284;58.364;15.550;2023-04-15T06:50:36;9.02;;;4.18;;
20251;SDS011;10284;58.364;15.550;2023-04-15T06:53:02;9.90;;;4.40;;
20251;SDS011;10284;58.364;15.550;2023-04-15T06:55:28;11.05;;;4.18;;
20251;SDS011;10284;58.364;15.550;2023-04-15T06:57:55;9.27;;;4.28;;
20251;SDS011;10284;58.364;15.550;2023-04-15T07:00:21;13.45;;;4.25;;
20251;SDS011;10284;58.364;15.550;2023-04-15T07:02:46;10.02;;;4.18;;
20251;SDS011;10284;58.364;15.550;2023-04-15T07:05:12;7.25;;;3.90;;
20251;SDS011;10284;58.364;15.550;2023-04-15T07:07:37;9.40;;;4.40;;
20251;SDS011;10284;58.364;15.550;2023-04-15T07:10:02;13.57;;;4.43;;
20251;SDS011;10284;58.364;15.550;2023-04-15T07:12:29;10.38;;;4.28;;
20251;SDS011;10284;58.364;15.550;2023-04-15T07:14:55;10.57;;;4.25;;
20251;SDS011;10284;58.364;15.550;2023-04-15T07:17:20;8.65;;;4.45;;
20251;SDS011;10284;58.364;15.550;2023-04-15T07:19:46;11.07;;;4.00;;
20251;SDS011;10284;58.364;15.550;2023-04-15T07:22:11;10.95;;;4.18;;
20251;SDS011;10284;58.364;15.550;2023-04-15T07:24:37;9.70;;;4.22;;
20251;SDS011;10284;58.364;15.550;2023-04-15T07:27:02;9.75;;;4.00;;
20251;SDS011;10284;58.364;15.550;2023-04-15T07:29:28;5.78;;;4.00;;
20251;SDS011;10284;58.364;15.550;2023-04-15T07:31:53;8.10;;;4.07;;
20251;SDS011;10284;58.364;15.550;2023-04-15T07:34:21;6.90;;;3.80;;
20251;SDS011;10284;58.364;15.550;2023-04-15T07:36:46;7.35;;;3.80;;
20251;SDS011;10284;58.364;15.550;2023-04-15T07:39:16;9.30;;;4.20;;
20251;SDS011;10284;58.364;15.550;2023-04-15T07:41:41;7.78;;;4.35;;
20251;SDS011;10284;58.364;15.550;2023-04-15T07:44:07;8.43;;;4.03;;
20251;SDS011;10284;58.364;15.550;2023-04-15T07:46:33;9.32;;;4.10;;
20251;SDS011;10284;58.364;15.550;2023-04-15T07:48:58;7.78;;;3.70;;
20251;SDS011;10284;58.364;15.550;2023-04-15T07:51:24;10.55;;;4.43;;
20251;SDS011;10284;58.364;15.550;2023-04-15T07:53:49;10.30;;;4.43;;
20251;SDS011;10284;58.364;15.550;2023-04-15T07:56:21;7.03;;;3.80;;
20251;SDS011;10284;58.364;15.550;2023-04-15T07:58:46;10.48;;;4.35;;
20251;SDS011;10284;58.364;15.550;2023-04-15T08:01:12;7.05;;;4.25;;
20251;SDS011;10284;58.364;15.550;2023-04-15T08:03:37;10.20;;;4.05;;
20251;SDS011;10284;58.364;15.550;2023-04-15T08:06:03;7.68;;;4.18;;
20251;SDS011;10284;58.364;15.550;2023-04-15T08:08:29;9.48;;;4.63;;
20251;SDS011;10284;58.364;15.550;2023-04-15T08:10:54;10.80;;;4.25;;
20251;SDS011;10284;58.364;15.550;2023-04-15T08:13:19;12.25;;;4.50;;
20251;SDS011;10284;58.364;15.550;2023-04-15T08:15:45;9.07;;;4.10;;
20251;SDS011;10284;58.364;15.550;2023-04-15T08:18:11;10.73;;;4.18;;
20251;SDS011;10284;58.364;15.550;2023-04-15T08:20:36;8.15;;;4.30;;
20251;SDS011;10284;58.364;15.550;2023-04-15T08:23:02;10.80;;;4.47;;
20251;SDS011;10284;58.364;15.550;2023-04-15T08:25:28;9.52;;;4.10;;
20251;SDS011;10284;58.364;15.550;2023-04-15T08:27:54;9.38;;;4.88;;
20251;SDS011;10284;58.364;15.550;2023-04-15T08:30:21;12.43;;;4.70;;
20251;SDS011;10284;58.364;15.550;2023-04-15T08:32:47;9.93;;;5.10;;
20251;SDS011;10284;58.364;15.550;2023-04-15T08:35:14;8.50;;;4.30;;
20251;SDS011;10284;58.364;15.550;2023-04-15T08:37:39;8.77;;;4.78;;
20251;SDS011;10284;58.364;15.550;2023-04-15T08:40:05;9.65;;;4.50;;
20251;SDS011;10284;58.364;15.550;2023-04-15T08:42:35;12.02;;;4.63;;
20251;SDS011;10284;58.364;15.550;2023-04-15T08:45:03;8.38;;;4.22;;
20251;SDS011;10284;58.364;15.550;2023-04-15T08:47:29;8.10;;;4.47;;
20251;SDS011;10284;58.364;15.550;2023-04-15T08:49:58;9.80;;;4.85;;
20251;SDS011;10284;58.364;15.550;2023-04-15T08:52:24;6.15;;;4.22;;
20251;SDS011;10284;58.364;15.550;2023-04-15T08:54:50;7.93;;;4.45;;
20251;SDS011;10284;58.364;15.550;2023-04-15T08:57:18;8.45;;;4.63;;
20251;SDS011;10284;58.364;15.550;2023-04-15T08:59:43;7.47;;;4.72;;
20251;SDS011;10284;58.364;15.550;2023-04-15T09:02:10;8.40;;;4.90;;
20251;SDS011;10284;58.364;15.550;2023-04-15T09:04:36;9.88;;;4.63;;
20251;SDS011;10284;58.364;15.550;2023-04-15T09:07:01;11.18;;;4.80;;
20251;SDS011;10284;58.364;15.550;2023-04-15T09:09:26;8.85;;;4.32;;
20251;SDS011;10284;58.364;15.550;2023-04-15T09:11:53;5.75;;;4.45;;
20251;SDS011;10284;58.364;15.550;2023-04-15T09:14:18;9.38;;;4.32;;
20251;SDS011;10284;58.364;15.550;2023-04-15T09:19:25;9.50;;;4.22;;
20251;SDS011;10284;58.364;15.550;2023-04-15T09:21:54;6.20;;;4.45;;
20251;SDS011;10284;58.364;15.550;2023-04-15T09:24:21;11.02;;;5.03;;
20251;SDS011;10284;58.364;15.550;2023-04-15T09:26:47;6.07;;;4.30;;
20251;SDS011;10284;58.364;15.550;2023-04-15T09:29:16;8.00;;;4.30;;
20251;SDS011;10284;58.364;15.550;2023-04-15T09:31:42;9.10;;;4.43;;
20251;SDS011;10284;58.364;15.550;2023-04-15T09:34:08;8.45;;;4.03;;
20251;SDS011;10284;58.364;15.550;2023-04-15T09:39:11;6.57;;;4.57;;
20251;SDS011;10284;58.364;15.550;2023-04-15T09:41:37;6.13;;;3.83;;
20251;SDS011;10284;58.364;15.550;2023-04-15T09:44:03;7.63;;;4.03;;
20251;SDS011;10284;58.364;15.550;2023-04-15T09:46:44;9.73;;;4.43;;
20251;SDS011;10284;58.364;15.550;2023-04-15T09:49:10;7.90;;;4.03;;
20251;SDS011;10284;58.364;15.550;2023-04-15T09:51:36;7.10;;;4.40;;
20251;SDS011;10284;58.364;15.550;2023-04-15T09:54:02;8.13;;;4.93;;
20251;SDS011;10284;58.364;15.550;2023-04-15T09:56:33;8.68;;;4.10;;
20251;SDS011;10284;58.364;15.550;2023-04-15T09:59:01;6.10;;;3.80;;
20251;SDS011;10284;58.364;15.550;2023-04-15T10:01:27;7.35;;;3.90;;
20251;SDS011;10284;58.364;15.550;2023-04-15T10:03:53;6.38;;;4.03;;
20251;SDS011;10284;58.364;15.550;2023-04-15T10:06:22;6.70;;;4.40;;
20251;SDS011;10284;58.364;15.550;2023-04-15T10:08:48;6.40;;;3.85;;
20251;SDS011;10284;58.364;15.550;2023-04-15T10:11:14;7.63;;;4.00;;
20251;SDS011;10284;58.364;15.550;2023-04-15T10:13:41;4.97;;;3.60;;
20251;SDS011;10284;58.364;15.550;2023-04-15T10:16:11;7.28;;;4.30;;
20251;SDS011;10284;58.364;15.550;2023-04-15T10:18:40;7.47;;;4.10;;
20251;SDS011;10284;58.364;15.550;2023-04-15T10:21:07;7.63;;;4.22;;
20251;SDS011;10284;58.364;15.550;2023-04-15T10:23:33;5.13;;;3.80;;
20251;SDS011;10284;58.364;15.550;2023-04-15T10:25:59;7.13;;;3.90;;
20251;SDS011;10284;58.364;15.550;2023-04-15T10:28:25;6.82;;;4.00;;
20251;SDS011;10284;58.364;15.550;2023-04-15T10:30:51;5.57;;;4.00;;
20251;SDS011;10284;58.364;15.550;2023-04-15T10:33:17;7.72;;;3.90;;
20251;SDS011;10284;58.364;15.550;2023-04-15T10:35:45;8.70;;;3.70;;
20251;SDS011;10284;58.364;15.550;2023-04-15T10:43:44;4.95;;;3.50;;
20251;SDS011;10284;58.364;15.550;2023-04-15T10:49:23;7.22;;;3.85;;
20251;SDS011;10284;58.364;15.550;2023-04-15T10:51:50;8.02;;;3.78;;
20251;SDS011;10284;58.364;15.550;2023-04-15T10:56:50;7.55;;;3.65;;
20251;SDS011;10284;58.364;15.550;2023-04-15T11:05:11;4.93;;;3.22;;
20251;SDS011;10284;58.364;15.550;2023-04-15T11:12:50;5.07;;;3.70;;
20251;SDS011;10284;58.364;15.550;2023-04-15T11:20:37;6.28;;;3.30;;
20251;SDS011;10284;58.364;15.550;2023-04-15T11:23:04;5.88;;;3.60;;
20251;SDS011;10284;58.364;15.550;2023-04-15T11:25:31;9.30;;;4.25;;
20251;SDS011;10284;58.364;15.550;2023-04-15T11:27:57;5.97;;;3.55;;
20251;SDS011;10284;58.364;15.550;2023-04-15T11:30:25;6.43;;;4.00;;
20251;SDS011;10284;58.364;15.550;2023-04-15T11:32:53;5.90;;;3.70;;
20251;SDS011;10284;58.364;15.550;2023-04-15T11:35:19;7.85;;;3.55;;
20251;SDS011;10284;58.364;15.550;2023-04-15T11:37:46;5.80;;;4.05;;
20251;SDS011;10284;58.364;15.550;2023-04-15T11:40:13;4.47;;;3.40;;
20251;SDS011;10284;58.364;15.550;2023-04-15T11:42:39;6.60;;;3.83;;
20251;SDS011;10284;58.364;15.550;2023-04-15T11:45:05;5.60;;;3.55;;
20251;SDS011;10284;58.364;15.550;2023-04-15T11:47:49;7.80;;;3.80;;
20251;SDS011;10284;58.364;15.550;2023-04-15T11:50:17;7.57;;;4.03;;
20251;SDS011;10284;58.364;15.550;2023-04-15T11:52:57;7.00;;;3.95;;
20251;SDS011;10284;58.364;15.550;2023-04-15T11:55:24;4.82;;;3.67;;
20251;SDS011;10284;58.364;15.550;2023-04-15T11:58:04;6.15;;;3.92;;
20251;SDS011;10284;58.364;15.550;2023-04-15T12:00:33;7.47;;;4.13;;
20251;SDS011;10284;58.364;15.550;2023-04-15T12:03:16;5.10;;;3.90;;
20251;SDS011;10284;58.364;15.550;2023-04-15T12:11:29;6.32;;;4.15;;
20251;SDS011;10284;58.364;15.550;2023-04-15T12:14:06;6.68;;;3.95;;
20251;SDS011;10284;58.364;15.550;2023-04-15T12:16:44;6.07;;;4.00;;
20251;SDS011;10284;58.364;15.550;2023-04-15T12:19:14;6.50;;;4.25;;
20251;SDS011;10284;58.364;15.550;2023-04-15T12:21:43;6.95;;;4.00;;
20251;SDS011;10284;58.364;15.550;2023-04-15T12:24:10;7.45;;;4.10;;
20251;SDS011;10284;58.364;15.550;2023-04-15T12:26:41;5.55;;;3.83;;
20251;SDS011;10284;58.364;15.550;2023-04-15T12:29:09;6.78;;;4.10;;
20251;SDS011;10284;58.364;15.550;2023-04-15T12:31:35;5.85;;;4.28;;
20251;SDS011;10284;58.364;15.550;2023-04-15T12:34:02;7.25;;;4.90;;
20251;SDS011;10284;58.364;15.550;2023-04-15T12:36:29;5.22;;;4.30;;
20251;SDS011;10284;58.364;15.550;2023-04-15T12:39:00;4.80;;;3.88;;
20251;SDS011;10284;58.364;15.550;2023-04-15T12:41:26;5.35;;;3.92;;
20251;SDS011;10284;58.364;15.550;2023-04-15T12:43:52;7.35;;;3.78;;
20251;SDS011;10284;58.364;15.550;2023-04-15T12:46:17;8.15;;;4.13;;
20251;SDS011;10284;58.364;15.550;2023-04-15T12:48:43;5.50;;;4.15;;
20251;SDS011;10284;58.364;15.550;2023-04-15T12:51:08;5.63;;;4.50;;
20251;SDS011;10284;58.364;15.550;2023-04-15T12:53:34;7.78;;;4.38;;
20251;SDS011;10284;58.364;15.550;2023-04-15T12:55:59;5.88;;;4.40;;
20251;SDS011;10284;58.364;15.550;2023-04-15T12:58:25;6.53;;;4.15;;
20251;SDS011;10284;58.364;15.550;2023-04-15T13:00:51;7.35;;;4.32;;
20251;SDS011;10284;58.364;15.550;2023-04-15T13:03:16;7.35;;;3.88;;
20251;SDS011;10284;58.364;15.550;2023-04-15T13:05:42;6.28;;;4.15;;
20251;SDS011;10284;58.364;15.550;2023-04-15T13:08:07;8.55;;;4.32;;
20251;SDS011;10284;58.364;15.550;2023-04-15T13:10:34;8.25;;;4.82;;
20251;SDS011;10284;58.364;15.550;2023-04-15T13:13:00;7.65;;;4.15;;
20251;SDS011;10284;58.364;15.550;2023-04-15T13:15:27;7.00;;;4.40;;
20251;SDS011;10284;58.364;15.550;2023-04-15T13:17:53;6.45;;;4.35;;
20251;SDS011;10284;58.364;15.550;2023-04-15T13:20:18;5.88;;;4.20;;
20251;SDS011;10284;58.364;15.550;2023-04-15T13:22:44;6.65;;;3.92;;
20251;SDS011;10284;58.364;15.550;2023-04-15T13:25:10;7.72;;;4.72;;
20251;SDS011;10284;58.364;15.550;2023-04-15T13:27:35;5.97;;;4.32;;
20251;SDS011;10284;58.364;15.550;2023-04-15T13:30:01;7.03;;;4.18;;
20251;SDS011;10284;58.364;15.550;2023-04-15T13:32:27;6.18;;;4.28;;
20251;SDS011;10284;58.364;15.550;2023-04-15T13:34:52;8.07;;;4.13;;
20251;SDS011;10284;58.364;15.550;2023-04-15T13:37:21;5.07;;;3.90;;
20251;SDS011;10284;58.364;15.550;2023-04-15T13:39:50;8.70;;;4.00;;
20251;SDS011;10284;58.364;15.550;2023-04-15T13:42:15;6.57;;;3.92;;
20251;SDS011;10284;58.364;15.550;2023-04-15T13:44:41;6.25;;;4.00;;
20251;SDS011;10284;58.364;15.550;2023-04-15T13:47:06;6.47;;;4.13;;
20251;SDS011;10284;58.364;15.550;2023-04-15T13:49:32;5.78;;;4.10;;
20251;SDS011;10284;58.364;15.550;2023-04-15T13:51:57;7.43;;;4.93;;
20251;SDS011;10284;58.364;15.550;2023-04-15T13:54:23;5.95;;;3.95;;
20251;SDS011;10284;58.364;15.550;2023-04-15T13:56:48;5.18;;;3.50;;
20251;SDS011;10284;58.364;15.550;2023-04-15T13:59:14;9.07;;;4.43;;
20251;SDS011;10284;58.364;15.550;2023-04-15T14:01:40;5.50;;;3.85;;
20251;SDS011;10284;58.364;15.550;2023-04-15T14:04:05;8.55;;;4.45;;
20251;SDS011;10284;58.364;15.550;2023-04-15T14:06:30;6.35;;;4.20;;
20251;SDS011;10284;58.364;15.550;2023-04-15T14:08:56;7.75;;;4.30;;
20251;SDS011;10284;58.364;15.550;2023-04-15T14:11:22;7.10;;;4.60;;
20251;SDS011;10284;58.364;15.550;2023-04-15T14:13:47;6.72;;;4.55;;
20251;SDS011;10284;58.364;15.550;2023-04-15T14:16:12;7.63;;;4.60;;
20251;SDS011;10284;58.364;15.550;2023-04-15T14:18:38;6.28;;;4.50;;
20251;SDS011;10284;58.364;15.550;2023-04-15T14:21:04;5.07;;;4.05;;
20251;SDS011;10284;58.364;15.550;2023-04-15T14:23:30;7.43;;;4.32;;
20251;SDS011;10284;58.364;15.550;2023-04-15T14:25:56;7.05;;;4.40;;
20251;SDS011;10284;58.364;15.550;2023-04-15T14:28:22;6.20;;;4.43;;
20251;SDS011;10284;58.364;15.550;2023-04-15T14:30:48;6.70;;;4.35;;
20251;SDS011;10284;58.364;15.550;2023-04-15T14:33:13;7.32;;;4.80;;
20251;SDS011;10284;58.364;15.550;2023-04-15T14:35:39;6.40;;;4.90;;
20251;SDS011;10284;58.364;15.550;2023-04-15T14:38:04;10.73;;;4.80;;
20251;SDS011;10284;58.364;15.550;2023-04-15T14:40:32;6.40;;;4.47;;
20251;SDS011;10284;58.364;15.550;2023-04-15T14:42:58;7.20;;;4.68;;
20251;SDS011;10284;58.364;15.550;2023-04-15T14:45:23;6.20;;;4.32;;
20251;SDS011;10284;58.364;15.550;2023-04-15T14:47:48;6.57;;;4.43;;
20251;SDS011;10284;58.364;15.550;2023-04-15T14:50:14;6.40;;;4.68;;
20251;SDS011;10284;58.364;15.550;2023-04-15T14:52:39;7.07;;;5.05;;
20251;SDS011;10284;58.364;15.550;2023-04-15T14:55:05;6.93;;;4.63;;
20251;SDS011;10284;58.364;15.550;2023-04-15T14:57:32;7.00;;;4.32;;
20251;SDS011;10284;58.364;15.550;2023-04-15T14:59:57;7.22;;;4.70;;
20251;SDS011;10284;58.364;15.550;2023-04-15T15:02:23;8.70;;;4.47;;